• 1
  • 2
  • 1

 

 

WebCam

  
Kamera Halle
Kamera Vorfeld
Wetter EDDS

METAR

EDDS 250620Z VRB01KT CAVOK 23/17 Q1020 NOSIG =
EDDS 250500Z 2506/2606 VRB03KT CAVOK


TAF

EDDS 250500Z 2506/2606 VRB03KT CAVOK =


SR/SS

03:19 / 19:28 UTC
(EDSO 25-06-2019)